sensor_id;sensor_type;location;lat;lon;timestamp;pressure;altitude;pressure_sealevel;temperature;humidity
34586;BME280;20816;50.950;11.108;2022-09-24T00:01:24;98175.25;;;11.71;84.47
34586;BME280;20816;50.950;11.108;2022-09-24T00:03:56;98174.66;;;11.63;85.12
34586;BME280;20816;50.950;11.108;2022-09-24T00:06:27;98173.09;;;11.57;85.46
34586;BME280;20816;50.950;11.108;2022-09-24T00:08:56;98167.16;;;11.50;85.94
34586;BME280;20816;50.950;11.108;2022-09-24T00:11:24;98171.00;;;11.40;86.04
34586;BME280;20816;50.950;11.108;2022-09-24T00:13:52;98184.25;;;11.37;86.25
34586;BME280;20816;50.950;11.108;2022-09-24T00:16:21;98184.44;;;11.31;86.34
34586;BME280;20816;50.950;11.108;2022-09-24T00:18:48;98179.28;;;11.28;86.55
34586;BME280;20816;50.950;11.108;2022-09-24T00:21:20;98178.41;;;11.28;86.43
34586;BME280;20816;50.950;11.108;2022-09-24T00:23:54;98178.66;;;11.20;87.09
34586;BME280;20816;50.950;11.108;2022-09-24T00:26:21;98184.03;;;11.17;87.37
34586;BME280;20816;50.950;11.108;2022-09-24T00:29:08;98180.56;;;11.15;87.86
34586;BME280;20816;50.950;11.108;2022-09-24T00:31:35;98172.59;;;11.18;87.05
34586;BME280;20816;50.950;11.108;2022-09-24T00:34:02;98176.16;;;11.15;87.23
34586;BME280;20816;50.950;11.108;2022-09-24T00:36:29;98175.50;;;11.09;87.35
34586;BME280;20816;50.950;11.108;2022-09-24T00:38:57;98178.41;;;11.00;88.09
34586;BME280;20816;50.950;11.108;2022-09-24T00:41:30;98179.53;;;10.91;88.72
34586;BME280;20816;50.950;11.108;2022-09-24T00:43:57;98173.41;;;10.90;88.42
34586;BME280;20816;50.950;11.108;2022-09-24T00:46:41;98174.16;;;10.95;87.41
34586;BME280;20816;50.950;11.108;2022-09-24T00:49:12;98173.22;;;10.97;87.14
34586;BME280;20816;50.950;11.108;2022-09-24T00:51:41;98172.16;;;11.04;86.65
34586;BME280;20816;50.950;11.108;2022-09-24T00:54:13;98165.34;;;10.97;86.16
34586;BME280;20816;50.950;11.108;2022-09-24T00:56:43;98164.53;;;10.94;86.88
34586;BME280;20816;50.950;11.108;2022-09-24T00:59:12;98159.34;;;10.93;86.66
34586;BME280;20816;50.950;11.108;2022-09-24T01:01:46;98153.22;;;10.92;86.79
34586;BME280;20816;50.950;11.108;2022-09-24T01:04:15;98149.69;;;10.93;86.72
34586;BME280;20816;50.950;11.108;2022-09-24T01:06:49;98144.38;;;10.95;86.63
34586;BME280;20816;50.950;11.108;2022-09-24T01:09:19;98140.31;;;10.85;87.38
34586;BME280;20816;50.950;11.108;2022-09-24T01:12:13;98141.22;;;10.82;88.42
34586;BME280;20816;50.950;11.108;2022-09-24T01:17:50;98146.22;;;10.62;89.85
34586;BME280;20816;50.950;11.108;2022-09-24T01:31:56;98151.81;;;10.51;90.81
34586;BME280;20816;50.950;11.108;2022-09-24T01:34:31;98143.09;;;10.49;90.89
34586;BME280;20816;50.950;11.108;2022-09-24T01:37:01;98144.06;;;10.47;90.72
34586;BME280;20816;50.950;11.108;2022-09-24T01:39:30;98147.63;;;10.44;90.89
34586;BME280;20816;50.950;11.108;2022-09-24T01:41:58;98139.16;;;10.34;92.00
34586;BME280;20816;50.950;11.108;2022-09-24T01:44:25;98135.88;;;10.26;92.02
34586;BME280;20816;50.950;11.108;2022-09-24T01:46:53;98142.97;;;10.23;92.66
34586;BME280;20816;50.950;11.108;2022-09-24T01:49:20;98140.03;;;10.35;92.28
34586;BME280;20816;50.950;11.108;2022-09-24T01:51:52;98134.56;;;10.41;90.95
34586;BME280;20816;50.950;11.108;2022-09-24T01:54:28;98131.81;;;10.46;90.66
34586;BME280;20816;50.950;11.108;2022-09-24T01:57:18;98131.66;;;10.52;89.91
34586;BME280;20816;50.950;11.108;2022-09-24T02:08:08;98125.38;;;10.56;90.53
34586;BME280;20816;50.950;11.108;2022-09-24T02:10:56;98131.38;;;10.61;90.08
34586;BME280;20816;50.950;11.108;2022-09-24T02:13:31;98125.94;;;10.67;89.73
34586;BME280;20816;50.950;11.108;2022-09-24T02:16:05;98113.69;;;10.66;89.45
34586;BME280;20816;50.950;11.108;2022-09-24T02:18:36;98120.75;;;10.64;89.01
34586;BME280;20816;50.950;11.108;2022-09-24T02:21:08;98116.94;;;10.74;88.79
34586;BME280;20816;50.950;11.108;2022-09-24T02:23:39;98116.09;;;10.74;88.94
34586;BME280;20816;50.950;11.108;2022-09-24T02:26:09;98107.34;;;10.73;88.68
34586;BME280;20816;50.950;11.108;2022-09-24T02:28:36;98108.47;;;10.64;88.70
34586;BME280;20816;50.950;11.108;2022-09-24T02:31:14;98117.16;;;10.66;89.25
34586;BME280;20816;50.950;11.108;2022-09-24T02:33:45;98107.81;;;10.58;89.92
34586;BME280;20816;50.950;11.108;2022-09-24T02:36:33;98107.16;;;10.51;90.13
34586;BME280;20816;50.950;11.108;2022-09-24T02:39:00;98108.97;;;10.48;90.57
34586;BME280;20816;50.950;11.108;2022-09-24T02:41:27;98103.91;;;10.42;90.87
34586;BME280;20816;50.950;11.108;2022-09-24T02:43:55;98115.53;;;10.33;92.06
34586;BME280;20816;50.950;11.108;2022-09-24T02:46:23;98110.44;;;10.28;91.99
34586;BME280;20816;50.950;11.108;2022-09-24T02:48:49;98104.44;;;10.23;92.93
34586;BME280;20816;50.950;11.108;2022-09-24T02:51:16;98102.63;;;10.25;92.75
34586;BME280;20816;50.950;11.108;2022-09-24T02:53:42;98102.72;;;10.22;93.30
34586;BME280;20816;50.950;11.108;2022-09-24T02:56:09;98100.28;;;10.15;93.41
34586;BME280;20816;50.950;11.108;2022-09-24T02:58:36;98089.00;;;10.11;93.60
34586;BME280;20816;50.950;11.108;2022-09-24T03:01:03;98076.75;;;10.11;94.00
34586;BME280;20816;50.950;11.108;2022-09-24T03:03:30;98076.75;;;10.11;94.46
34586;BME280;20816;50.950;11.108;2022-09-24T03:05:57;98078.41;;;10.14;94.48
34586;BME280;20816;50.950;11.108;2022-09-24T03:08:24;98050.53;;;10.10;94.74
34586;BME280;20816;50.950;11.108;2022-09-24T03:10:51;98074.22;;;10.07;95.00
34586;BME280;20816;50.950;11.108;2022-09-24T03:13:18;98063.72;;;10.07;94.84
34586;BME280;20816;50.950;11.108;2022-09-24T03:15:45;98054.09;;;10.07;94.74
34586;BME280;20816;50.950;11.108;2022-09-24T03:18:13;98060.28;;;10.05;96.54
34586;BME280;20816;50.950;11.108;2022-09-24T03:20:40;98052.50;;;10.02;96.26
34586;BME280;20816;50.950;11.108;2022-09-24T03:23:06;98052.59;;;9.99;96.94
34586;BME280;20816;50.950;11.108;2022-09-24T03:25:33;98062.13;;;10.01;96.44
34586;BME280;20816;50.950;11.108;2022-09-24T03:28:00;98071.16;;;9.91;97.58
34586;BME280;20816;50.950;11.108;2022-09-24T03:30:26;98073.75;;;9.93;97.16
34586;BME280;20816;50.950;11.108;2022-09-24T03:33:11;98073.75;;;9.93;97.08
34586;BME280;20816;50.950;11.108;2022-09-24T03:35:39;98061.75;;;9.84;96.61
34586;BME280;20816;50.950;11.108;2022-09-24T03:38:05;98068.69;;;9.87;97.33
34586;BME280;20816;50.950;11.108;2022-09-24T03:40:32;98059.81;;;9.91;96.83
34586;BME280;20816;50.950;11.108;2022-09-24T03:42:58;98061.72;;;9.86;97.19
34586;BME280;20816;50.950;11.108;2022-09-24T03:45:25;98071.47;;;9.80;98.50
34586;BME280;20816;50.950;11.108;2022-09-24T03:47:52;98065.22;;;9.84;97.94
34586;BME280;20816;50.950;11.108;2022-09-24T03:50:18;98057.34;;;9.86;97.26
34586;BME280;20816;50.950;11.108;2022-09-24T03:52:45;98066.13;;;9.83;96.71
34586;BME280;20816;50.950;11.108;2022-09-24T03:55:11;98056.78;;;9.73;97.07
34586;BME280;20816;50.950;11.108;2022-09-24T03:57:38;98056.91;;;9.69;97.55
34586;BME280;20816;50.950;11.108;2022-09-24T04:00:05;98064.81;;;9.67;98.46
34586;BME280;20816;50.950;11.108;2022-09-24T04:02:31;98059.81;;;9.58;99.49
34586;BME280;20816;50.950;11.108;2022-09-24T04:04:58;98056.50;;;9.51;100.00
34586;BME280;20816;50.950;11.108;2022-09-24T04:07:24;98053.81;;;9.54;99.56
34586;BME280;20816;50.950;11.108;2022-09-24T04:09:51;98054.06;;;9.45;100.00
34586;BME280;20816;50.950;11.108;2022-09-24T04:12:18;98054.91;;;9.46;100.00
34586;BME280;20816;50.950;11.108;2022-09-24T04:14:45;98061.22;;;9.39;100.00
34586;BME280;20816;50.950;11.108;2022-09-24T04:17:11;98070.19;;;9.30;100.00
34586;BME280;20816;50.950;11.108;2022-09-24T04:19:39;98070.28;;;9.25;100.00
34586;BME280;20816;50.950;11.108;2022-09-24T04:22:06;98066.94;;;9.20;100.00
34586;BME280;20816;50.950;11.108;2022-09-24T04:24:32;98078.28;;;9.19;100.00
34586;BME280;20816;50.950;11.108;2022-09-24T04:26:59;98076.66;;;9.15;100.00
34586;BME280;20816;50.950;11.108;2022-09-24T04:29:26;98075.00;;;9.11;100.00
34586;BME280;20816;50.950;11.108;2022-09-24T04:31:52;98080.06;;;9.19;100.00
34586;BME280;20816;50.950;11.108;2022-09-24T04:34:19;98084.53;;;9.15;100.00
34586;BME280;20816;50.950;11.108;2022-09-24T04:36:46;98083.94;;;9.04;100.00
34586;BME280;20816;50.950;11.108;2022-09-24T04:39:13;98087.44;;;9.03;100.00
34586;BME280;20816;50.950;11.108;2022-09-24T04:41:40;98079.78;;;8.94;100.00
34586;BME280;20816;50.950;11.108;2022-09-24T04:44:06;98077.22;;;8.92;100.00
34586;BME280;20816;50.950;11.108;2022-09-24T04:46:33;98075.50;;;8.91;100.00
34586;BME280;20816;50.950;11.108;2022-09-24T04:49:00;98080.81;;;8.88;100.00
34586;BME280;20816;50.950;11.108;2022-09-24T04:51:27;98079.88;;;8.91;100.00
34586;BME280;20816;50.950;11.108;2022-09-24T04:53:53;98076.28;;;8.95;100.00
34586;BME280;20816;50.950;11.108;2022-09-24T04:56:20;98079.97;;;8.88;100.00
34586;BME280;20816;50.950;11.108;2022-09-24T04:58:49;98083.44;;;8.87;100.00
34586;BME280;20816;50.950;11.108;2022-09-24T05:01:17;98076.28;;;8.95;100.00
34586;BME280;20816;50.950;11.108;2022-09-24T05:03:44;98080.66;;;8.94;100.00
34586;BME280;20816;50.950;11.108;2022-09-24T05:06:12;98079.78;;;8.94;100.00
34586;BME280;20816;50.950;11.108;2022-09-24T05:08:38;98081.47;;;8.98;100.00
34586;BME280;20816;50.950;11.108;2022-09-24T05:11:05;98090.13;;;9.00;100.00
34586;BME280;20816;50.950;11.108;2022-09-24T05:13:32;98088.41;;;8.99;100.00
34586;BME280;20816;50.950;11.108;2022-09-24T05:15:59;98084.00;;;9.01;100.00
34586;BME280;20816;50.950;11.108;2022-09-24T05:18:26;98084.00;;;9.01;100.00
34586;BME280;20816;50.950;11.108;2022-09-24T05:20:53;98079.56;;;9.05;100.00
34586;BME280;20816;50.950;11.108;2022-09-24T05:23:20;98077.78;;;9.05;100.00
34586;BME280;20816;50.950;11.108;2022-09-24T05:25:46;98082.88;;;9.11;100.00
34586;BME280;20816;50.950;11.108;2022-09-24T05:28:36;98093.44;;;9.08;100.00
34586;BME280;20816;50.950;11.108;2022-09-24T05:31:03;98092.66;;;9.03;100.00
34586;BME280;20816;50.950;11.108;2022-09-24T05:33:30;98084.97;;;8.97;100.00
34586;BME280;20816;50.950;11.108;2022-09-24T05:35:57;98083.03;;;9.05;100.00
34586;BME280;20816;50.950;11.108;2022-09-24T05:38:23;98085.53;;;9.10;100.00
34586;BME280;20816;50.950;11.108;2022-09-24T05:40:50;98087.88;;;9.22;100.00
34586;BME280;20816;50.950;11.108;2022-09-24T05:43:17;98089.22;;;9.38;100.00
34586;BME280;20816;50.950;11.108;2022-09-24T05:45:44;98083.69;;;9.49;100.00
34586;BME280;20816;50.950;11.108;2022-09-24T05:48:11;98090.41;;;9.59;100.00
34586;BME280;20816;50.950;11.108;2022-09-24T05:50:38;98088.63;;;9.61;100.00
34586;BME280;20816;50.950;11.108;2022-09-24T05:53:04;98090.50;;;9.56;100.00
34586;BME280;20816;50.950;11.108;2022-09-24T05:55:31;98088.72;;;9.57;100.00
34586;BME280;20816;50.950;11.108;2022-09-24T05:58:06;98093.78;;;9.64;100.00
34586;BME280;20816;50.950;11.108;2022-09-24T06:00:35;98083.91;;;9.74;100.00
34586;BME280;20816;50.950;11.108;2022-09-24T06:03:22;98087.06;;;9.87;100.00
34586;BME280;20816;50.950;11.108;2022-09-24T06:05:49;98080.75;;;9.94;100.00
34586;BME280;20816;50.950;11.108;2022-09-24T06:08:17;98076.09;;;10.03;100.00
34586;BME280;20816;50.950;11.108;2022-09-24T06:10:45;98074.19;;;10.08;100.00
34586;BME280;20816;50.950;11.108;2022-09-24T06:13:17;98087.03;;;10.19;100.00
34586;BME280;20816;50.950;11.108;2022-09-24T06:15:44;98078.00;;;10.29;100.00
34586;BME280;20816;50.950;11.108;2022-09-24T06:18:11;98082.03;;;10.41;100.00
34586;BME280;20816;50.950;11.108;2022-09-24T06:20:38;98081.75;;;10.50;100.00
34586;BME280;20816;50.950;11.108;2022-09-24T06:23:05;98078.91;;;10.58;100.00
34586;BME280;20816;50.950;11.108;2022-09-24T06:25:33;98073.47;;;10.64;100.00
34586;BME280;20816;50.950;11.108;2022-09-24T06:28:01;98069.69;;;10.73;100.00
34586;BME280;20816;50.950;11.108;2022-09-24T06:30:31;98064.91;;;10.85;100.00
34586;BME280;20816;50.950;11.108;2022-09-24T06:33:06;98066.16;;;11.02;100.00
34586;BME280;20816;50.950;11.108;2022-09-24T06:35:34;98058.75;;;11.13;100.00
34586;BME280;20816;50.950;11.108;2022-09-24T06:38:02;98062.81;;;11.23;100.00
34586;BME280;20816;50.950;11.108;2022-09-24T06:40:29;98058.13;;;11.33;100.00
34586;BME280;20816;50.950;11.108;2022-09-24T06:43:02;98061.59;;;11.33;100.00
34586;BME280;20816;50.950;11.108;2022-09-24T06:45:29;98060.84;;;11.30;100.00
34586;BME280;20816;50.950;11.108;2022-09-24T06:47:57;98064.31;;;11.30;100.00
34586;BME280;20816;50.950;11.108;2022-09-24T06:50:26;98068.72;;;11.30;100.00
34586;BME280;20816;50.950;11.108;2022-09-24T06:52:54;98067.88;;;11.29;100.00
34586;BME280;20816;50.950;11.108;2022-09-24T06:55:21;98069.69;;;11.27;100.00
34586;BME280;20816;50.950;11.108;2022-09-24T06:57:48;98070.63;;;11.26;100.00
34586;BME280;20816;50.950;11.108;2022-09-24T07:00:15;98069.50;;;11.33;100.00
34586;BME280;20816;50.950;11.108;2022-09-24T07:02:42;98081.50;;;11.67;100.00
34586;BME280;20816;50.950;11.108;2022-09-24T07:05:09;98089.53;;;12.14;99.22
34586;BME280;20816;50.950;11.108;2022-09-24T07:07:35;98080.53;;;12.66;94.54
34586;BME280;20816;50.950;11.108;2022-09-24T07:10:05;98079.53;;;13.14;89.00
34586;BME280;20816;50.950;11.108;2022-09-24T07:12:34;98074.34;;;13.55;86.38
34586;BME280;20816;50.950;11.108;2022-09-24T07:15:02;98075.69;;;13.85;85.69
34586;BME280;20816;50.950;11.108;2022-09-24T07:17:29;98072.00;;;14.28;83.53
34586;BME280;20816;50.950;11.108;2022-09-24T07:19:59;98060.09;;;14.57;83.72
34586;BME280;20816;50.950;11.108;2022-09-24T07:22:26;98073.59;;;15.08;83.15
34586;BME280;20816;50.950;11.108;2022-09-24T07:24:53;98069.50;;;15.73;80.90
34586;BME280;20816;50.950;11.108;2022-09-24T07:27:19;98066.56;;;16.45;78.58
34586;BME280;20816;50.950;11.108;2022-09-24T07:29:49;98060.09;;;16.98;75.49
34586;BME280;20816;50.950;11.108;2022-09-24T07:32:16;98062.25;;;17.53;72.15
34586;BME280;20816;50.950;11.108;2022-09-24T07:34:45;98068.28;;;17.41;71.62
34586;BME280;20816;50.950;11.108;2022-09-24T07:37:12;98065.25;;;17.47;72.69
34586;BME280;20816;50.950;11.108;2022-09-24T07:39:38;98076.09;;;17.28;73.62
34586;BME280;20816;50.950;11.108;2022-09-24T07:42:05;98075.84;;;17.01;72.91
34586;BME280;20816;50.950;11.108;2022-09-24T07:44:32;98082.38;;;16.80;72.72
34586;BME280;20816;50.950;11.108;2022-09-24T07:46:58;98084.41;;;16.75;73.49
34586;BME280;20816;50.950;11.108;2022-09-24T07:49:25;98090.06;;;16.69;71.99
34586;BME280;20816;50.950;11.108;2022-09-24T07:51:52;98079.16;;;16.58;71.67
34586;BME280;20816;50.950;11.108;2022-09-24T07:54:19;98082.44;;;17.10;72.73
34586;BME280;20816;50.950;11.108;2022-09-24T07:56:45;98077.91;;;17.28;72.17
34586;BME280;20816;50.950;11.108;2022-09-24T07:59:12;98092.00;;;17.76;70.85
34586;BME280;20816;50.950;11.108;2022-09-24T08:01:39;98081.50;;;18.03;68.59
34586;BME280;20816;50.950;11.108;2022-09-24T08:04:06;98076.69;;;18.52;66.88
34586;BME280;20816;50.950;11.108;2022-09-24T08:06:36;98078.19;;;18.99;65.70
34586;BME280;20816;50.950;11.108;2022-09-24T08:09:08;98079.09;;;19.12;64.99
34586;BME280;20816;50.950;11.108;2022-09-24T08:11:35;98081.56;;;19.42;65.02
34586;BME280;20816;50.950;11.108;2022-09-24T08:14:02;98082.09;;;19.20;64.22
34586;BME280;20816;50.950;11.108;2022-09-24T08:16:28;98071.53;;;18.92;65.26
34586;BME280;20816;50.950;11.108;2022-09-24T08:18:55;98081.75;;;19.12;64.38
34586;BME280;20816;50.950;11.108;2022-09-24T08:21:22;98090.06;;;19.62;63.28
34586;BME280;20816;50.950;11.108;2022-09-24T08:23:48;98084.91;;;19.85;61.96
34586;BME280;20816;50.950;11.108;2022-09-24T08:26:15;98079.97;;;20.45;61.88
34586;BME280;20816;50.950;11.108;2022-09-24T08:28:41;98081.47;;;20.98;60.72
34586;BME280;20816;50.950;11.108;2022-09-24T08:31:10;98087.72;;;20.73;61.02
34586;BME280;20816;50.950;11.108;2022-09-24T08:33:38;98086.59;;;21.01;58.85
34586;BME280;20816;50.950;11.108;2022-09-24T08:36:07;98077.41;;;21.05;59.06
34586;BME280;20816;50.950;11.108;2022-09-24T08:38:35;98073.56;;;21.57;58.26
34586;BME280;20816;50.950;11.108;2022-09-24T08:44:06;98082.72;;;21.66;58.66
34586;BME280;20816;50.950;11.108;2022-09-24T08:46:48;98082.25;;;21.61;58.57
34586;BME280;20816;50.950;11.108;2022-09-24T08:49:41;98076.09;;;21.47;59.63
34586;BME280;20816;50.950;11.108;2022-09-24T08:52:28;98069.25;;;22.02;59.12
34586;BME280;20816;50.950;11.108;2022-09-24T08:55:03;98068.31;;;22.15;57.95
34586;BME280;20816;50.950;11.108;2022-09-24T08:57:38;98069.19;;;22.37;58.29
34586;BME280;20816;50.950;11.108;2022-09-24T09:00:11;98073.75;;;22.48;56.88
34586;BME280;20816;50.950;11.108;2022-09-24T09:02:52;98076.03;;;22.06;57.87
34586;BME280;20816;50.950;11.108;2022-09-24T09:08:13;98070.31;;;22.35;55.06
34586;BME280;20816;50.950;11.108;2022-09-24T09:11:03;98073.19;;;22.21;56.73
34586;BME280;20816;50.950;11.108;2022-09-24T09:13:37;98073.47;;;22.62;55.68
34586;BME280;20816;50.950;11.108;2022-09-24T09:18:38;98067.38;;;23.92;52.91
34586;BME280;20816;50.950;11.108;2022-09-24T09:21:15;98072.56;;;23.29;53.44
34586;BME280;20816;50.950;11.108;2022-09-24T09:23:47;98073.13;;;23.55;52.98
34586;BME280;20816;50.950;11.108;2022-09-24T09:26:14;98077.50;;;22.68;53.63
34586;BME280;20816;50.950;11.108;2022-09-24T09:28:44;98075.78;;;22.78;54.89
34586;BME280;20816;50.950;11.108;2022-09-24T09:40:34;98068.34;;;23.91;52.42
34586;BME280;20816;50.950;11.108;2022-09-24T09:43:07;98064.44;;;23.95;51.60
34586;BME280;20816;50.950;11.108;2022-09-24T09:45:57;98059.31;;;24.33;51.44
34586;BME280;20816;50.950;11.108;2022-09-24T09:48:40;98068.84;;;24.26;51.99
34586;BME280;20816;50.950;11.108;2022-09-24T09:51:16;98068.22;;;24.55;51.07
34586;BME280;20816;50.950;11.108;2022-09-24T09:53:58;98070.13;;;24.22;52.23
34586;BME280;20816;50.950;11.108;2022-09-24T09:56:42;98069.81;;;24.37;51.14
34586;BME280;20816;50.950;11.108;2022-09-24T10:01:41;98065.75;;;24.21;51.23
34586;BME280;20816;50.950;11.108;2022-09-24T10:04:30;98068.22;;;23.71;51.95
34586;BME280;20816;50.950;11.108;2022-09-24T10:07:09;98072.41;;;23.42;52.61
34586;BME280;20816;50.950;11.108;2022-09-24T10:09:37;98071.56;;;22.64;54.25
34586;BME280;20816;50.950;11.108;2022-09-24T10:12:11;98056.69;;;22.94;54.05
34586;BME280;20816;50.950;11.108;2022-09-24T10:14:40;98069.56;;;23.11;53.47
34586;BME280;20816;50.950;11.108;2022-09-24T10:17:17;98061.22;;;23.37;53.03
34586;BME280;20816;50.950;11.108;2022-09-24T10:19:44;98054.34;;;24.08;52.93
34586;BME280;20816;50.950;11.108;2022-09-24T10:22:21;98051.25;;;24.33;51.95
34586;BME280;20816;50.950;11.108;2022-09-24T10:24:50;98049.19;;;23.95;52.41
34586;BME280;20816;50.950;11.108;2022-09-24T10:27:35;98056.38;;;23.31;53.97
34586;BME280;20816;50.950;11.108;2022-09-24T10:30:15;98059.09;;;23.63;53.55
34586;BME280;20816;50.950;11.108;2022-09-24T10:33:02;98063.56;;;23.30;54.73
34586;BME280;20816;50.950;11.108;2022-09-24T10:35:32;98060.69;;;23.00;55.06
34586;BME280;20816;50.950;11.108;2022-09-24T10:38:12;98059.56;;;23.25;54.34
34586;BME280;20816;50.950;11.108;2022-09-24T10:40:40;98054.34;;;23.44;53.82
34586;BME280;20816;50.950;11.108;2022-09-24T10:43:15;98061.94;;;24.03;52.76
34586;BME280;20816;50.950;11.108;2022-09-24T10:45:53;98058.31;;;23.93;52.06
34586;BME280;20816;50.950;11.108;2022-09-24T10:48:44;98052.41;;;23.14;53.81
34586;BME280;20816;50.950;11.108;2022-09-24T10:51:30;98049.31;;;23.62;53.37
34586;BME280;20816;50.950;11.108;2022-09-24T10:56:55;98040.94;;;23.87;53.42
34586;BME280;20816;50.950;11.108;2022-09-24T11:00:18;98041.75;;;24.09;51.99
34586;BME280;20816;50.950;11.108;2022-09-24T11:02:36;98037.00;;;23.59;53.21
34586;BME280;20816;50.950;11.108;2022-09-24T11:05:10;98033.72;;;23.24;53.30
34586;BME280;20816;50.950;11.108;2022-09-24T11:10:32;98046.53;;;23.63;52.57
34586;BME280;20816;50.950;11.108;2022-09-24T11:13:32;98047.00;;;23.89;52.08
34586;BME280;20816;50.950;11.108;2022-09-24T11:21:54;98041.41;;;24.74;51.19
34586;BME280;20816;50.950;11.108;2022-09-24T11:27:50;98041.59;;;22.59;54.07
34586;BME280;20816;50.950;11.108;2022-09-24T11:33:27;98038.38;;;22.09;57.14
34586;BME280;20816;50.950;11.108;2022-09-24T11:36:26;98034.88;;;22.09;56.09
34586;BME280;20816;50.950;11.108;2022-09-24T11:45:07;98014.22;;;21.98;55.69
34586;BME280;20816;50.950;11.108;2022-09-24T11:51:21;98015.78;;;22.58;53.99
34586;BME280;20816;50.950;11.108;2022-09-24T11:54:24;98022.34;;;22.54;55.34
34586;BME280;20816;50.950;11.108;2022-09-24T11:57:42;98010.88;;;22.63;55.26
34586;BME280;20816;50.950;11.108;2022-09-24T11:59:50;98016.75;;;22.57;54.65
34586;BME280;20816;50.950;11.108;2022-09-24T12:02:24;98007.25;;;22.64;54.36
34586;BME280;20816;50.950;11.108;2022-09-24T12:05:02;98009.97;;;21.96;54.21
34586;BME280;20816;50.950;11.108;2022-09-24T12:07:54;98007.25;;;22.42;54.06
34586;BME280;20816;50.950;11.108;2022-09-24T12:12:53;98002.81;;;23.08;50.66
34586;BME280;20816;50.950;11.108;2022-09-24T12:15:26;98008.44;;;22.72;50.68
34586;BME280;20816;50.950;11.108;2022-09-24T12:18:00;98002.13;;;22.61;51.72
34586;BME280;20816;50.950;11.108;2022-09-24T12:20:29;98002.34;;;22.70;51.77
34586;BME280;20816;50.950;11.108;2022-09-24T12:23:01;98006.03;;;22.35;50.81
34586;BME280;20816;50.950;11.108;2022-09-24T12:25:39;97993.09;;;22.85;49.80
34586;BME280;20816;50.950;11.108;2022-09-24T12:28:18;97995.19;;;23.25;49.39
34586;BME280;20816;50.950;11.108;2022-09-24T12:31:31;97991.16;;;23.51;49.20
34586;BME280;20816;50.950;11.108;2022-09-24T12:34:39;97985.91;;;23.61;48.98
34586;BME280;20816;50.950;11.108;2022-09-24T12:37:12;97985.66;;;23.85;46.92
34586;BME280;20816;50.950;11.108;2022-09-24T12:42:49;97984.81;;;23.52;48.03
34586;BME280;20816;50.950;11.108;2022-09-24T12:45:19;97990.66;;;22.71;49.88
34586;BME280;20816;50.950;11.108;2022-09-24T12:47:58;97990.91;;;22.00;50.56
34586;BME280;20816;50.950;11.108;2022-09-24T12:50:31;97987.00;;;21.93;50.87
34586;BME280;20816;50.950;11.108;2022-09-24T12:52:59;97986.09;;;22.17;51.14
34586;BME280;20816;50.950;11.108;2022-09-24T12:55:30;97977.41;;;22.47;51.78
34586;BME280;20816;50.950;11.108;2022-09-24T12:58:04;97984.84;;;22.09;52.36
34586;BME280;20816;50.950;11.108;2022-09-24T13:00:40;97976.06;;;22.63;50.66
34586;BME280;20816;50.950;11.108;2022-09-24T13:03:44;97976.81;;;22.65;49.27
34586;BME280;20816;50.950;11.108;2022-09-24T13:06:35;97974.63;;;22.59;49.65
34586;BME280;20816;50.950;11.108;2022-09-24T13:14:59;97975.34;;;22.39;50.17
34586;BME280;20816;50.950;11.108;2022-09-24T13:17:32;97982.78;;;22.35;52.22
34586;BME280;20816;50.950;11.108;2022-09-24T13:20:05;97981.91;;;22.01;50.34
34586;BME280;20816;50.950;11.108;2022-09-24T13:22:35;97982.28;;;21.50;51.78
34586;BME280;20816;50.950;11.108;2022-09-24T13:27:39;97979.78;;;21.36;53.15
34586;BME280;20816;50.950;11.108;2022-09-24T13:32:49;97979.38;;;21.65;51.31
34586;BME280;20816;50.950;11.108;2022-09-24T13:35:21;97981.06;;;21.66;50.57
34586;BME280;20816;50.950;11.108;2022-09-24T13:37:58;97975.13;;;21.62;48.05
34586;BME280;20816;50.950;11.108;2022-09-24T13:40:32;97976.81;;;21.52;49.33
34586;BME280;20816;50.950;11.108;2022-09-24T13:43:16;97971.06;;;21.45;49.38
34586;BME280;20816;50.950;11.108;2022-09-24T13:45:45;97971.22;;;21.66;48.85
34586;BME280;20816;50.950;11.108;2022-09-24T13:48:28;97964.56;;;21.72;48.83
34586;BME280;20816;50.950;11.108;2022-09-24T13:50:59;97962.91;;;21.93;48.36
34586;BME280;20816;50.950;11.108;2022-09-24T13:53:32;97955.00;;;22.03;49.12
34586;BME280;20816;50.950;11.108;2022-09-24T13:56:15;97962.22;;;22.14;48.64
34586;BME280;20816;50.950;11.108;2022-09-24T13:58:43;97969.81;;;21.27;50.05
34586;BME280;20816;50.950;11.108;2022-09-24T14:03:54;97967.31;;;21.00;52.28
34586;BME280;20816;50.950;11.108;2022-09-24T14:06:32;97964.34;;;21.16;52.21
34586;BME280;20816;50.950;11.108;2022-09-24T14:09:00;97960.78;;;20.80;51.44
34586;BME280;20816;50.950;11.108;2022-09-24T14:11:27;97959.22;;;21.02;51.41
34586;BME280;20816;50.950;11.108;2022-09-24T14:13:53;97966.25;;;21.03;51.89
34586;BME280;20816;50.950;11.108;2022-09-24T14:16:24;97964.19;;;20.82;51.49
34586;BME280;20816;50.950;11.108;2022-09-24T14:19:02;97968.00;;;21.15;50.69
34586;BME280;20816;50.950;11.108;2022-09-24T14:21:31;97967.19;;;21.25;50.63
34586;BME280;20816;50.950;11.108;2022-09-24T14:24:26;97965.06;;;21.31;50.05
34586;BME280;20816;50.950;11.108;2022-09-24T14:27:15;97969.81;;;21.27;51.40
34586;BME280;20816;50.950;11.108;2022-09-24T14:29:54;97973.19;;;21.29;49.97
34586;BME280;20816;50.950;11.108;2022-09-24T14:32:25;97962.63;;;21.04;49.23
34586;BME280;20816;50.950;11.108;2022-09-24T14:35:05;97966.13;;;20.80;50.73
34586;BME280;20816;50.950;11.108;2022-09-24T14:37:36;97965.28;;;21.04;49.71
34586;BME280;20816;50.950;11.108;2022-09-24T14:40:15;97966.88;;;21.06;50.39
34586;BME280;20816;50.950;11.108;2022-09-24T14:42:52;97971.41;;;20.93;52.25
34586;BME280;20816;50.950;11.108;2022-09-24T14:45:32;97969.19;;;20.63;52.54